Time;durP1;ratioP1;P1;durP2;ratioP2;P2;SDS_P1;SDS_P2;PMS_P1;PMS_P2;Temp;Humidity;BMP_temperature;BMP_pressure;BME280_temperature;BME280_humidity;BME280_pressure;Samples;Min_cycle;Max_cycle;Signal;HPM_P1;HPM_P2
2021/04/23 00:00:40;;;;;;;7.03;2.77;;;5.40;99.90;;;;;;5094449;28;20237;-55
2021/04/23 00:03:15;;;;;;;6.30;2.70;;;5.40;99.90;;;;;;5094456;28;20274;-56
2021/04/23 00:05:42;;;;;;;5.57;2.73;;;5.40;99.90;;;;;;5094531;28;20281;-58
2021/04/23 00:08:10;;;;;;;5.20;2.60;;;5.40;99.90;;;;;;5094500;28;20199;-56
2021/04/23 00:10:37;;;;;;;7.73;3.23;;;5.40;99.90;;;;;;5093225;28;20205;-55
2021/04/23 00:13:05;;;;;;;8.87;3.53;;;5.30;99.90;;;;;;5093775;28;20325;-56
2021/04/23 00:15:32;;;;;;;4.00;2.67;;;5.30;99.90;;;;;;5094598;28;20277;-56
2021/04/23 00:17:58;;;;;;;6.10;3.20;;;5.20;99.90;;;;;;5094360;28;20303;-55
2021/04/23 00:20:28;;;;;;;4.83;2.43;;;5.30;99.90;;;;;;5093872;28;20213;-55
2021/04/23 00:22:56;;;;;;;8.37;3.57;;;5.30;99.90;;;;;;5094227;28;20247;-56
2021/04/23 00:25:26;;;;;;;5.97;2.90;;;5.30;99.90;;;;;;5094409;28;20229;-57
2021/04/23 00:28:00;;;;;;;4.90;3.07;;;5.30;99.90;;;;;;5094029;28;20183;-57
2021/04/23 00:30:31;;;;;;;6.27;3.00;;;5.30;99.90;;;;;;5094267;28;20305;-57
2021/04/23 00:32:58;;;;;;;7.77;3.30;;;5.40;99.90;;;;;;5094137;28;20205;-54
2021/04/23 00:35:31;;;;;;;7.43;3.07;;;5.30;99.90;;;;;;5093949;28;20240;-56
2021/04/23 00:37:59;;;;;;;7.07;2.97;;;5.30;99.90;;;;;;5094241;28;20213;-57
2021/04/23 00:40:31;;;;;;;6.10;3.60;;;5.20;99.90;;;;;;5093525;28;20223;-56
2021/04/23 00:43:05;;;;;;;6.63;3.30;;;5.20;99.90;;;;;;5093349;28;20276;-56
2021/04/23 00:45:32;;;;;;;6.20;3.43;;;5.10;99.90;;;;;;5093251;28;20297;-57
2021/04/23 00:48:02;;;;;;;5.40;3.07;;;5.00;99.90;;;;;;5093657;28;20197;-56
2021/04/23 00:50:36;;;;;;;6.07;3.10;;;5.10;99.90;;;;;;5093682;28;20208;-55
2021/04/23 00:53:04;;;;;;;9.23;3.43;;;5.00;99.90;;;;;;5093958;28;20214;-56
2021/04/23 00:55:32;;;;;;;6.80;2.97;;;5.10;99.90;;;;;;5094049;28;20236;-56
2021/04/23 00:58:00;;;;;;;6.23;3.33;;;5.10;99.90;;;;;;5093353;28;20687;-57
2021/04/23 01:00:27;;;;;;;6.50;3.30;;;5.00;99.90;;;;;;5093205;28;20870;-56
2021/04/23 01:02:54;;;;;;;5.70;3.40;;;5.00;99.90;;;;;;5093543;28;20225;-56
2021/04/23 01:05:28;;;;;;;7.57;4.13;;;5.00;99.90;;;;;;5093392;28;20211;-56
2021/04/23 01:07:56;;;;;;;6.20;3.20;;;4.90;99.90;;;;;;5093032;28;20279;-57
2021/04/23 01:10:23;;;;;;;6.20;3.50;;;4.80;99.90;;;;;;5093609;28;20228;-55
2021/04/23 01:12:50;;;;;;;5.37;3.53;;;4.90;99.90;;;;;;5092760;28;20233;-56
2021/04/23 01:15:17;;;;;;;5.27;3.00;;;4.90;99.90;;;;;;5093605;28;20182;-58
2021/04/23 01:17:43;;;;;;;7.83;3.70;;;4.80;99.90;;;;;;5093333;28;20355;-58
2021/04/23 01:20:12;;;;;;;8.17;3.90;;;4.80;99.90;;;;;;5093070;28;20211;-56
2021/04/23 01:22:40;;;;;;;7.27;3.77;;;4.80;99.90;;;;;;5092993;28;20222;-55
2021/04/23 01:25:09;;;;;;;4.27;3.30;;;4.80;99.90;;;;;;5093022;28;20207;-58
2021/04/23 01:27:36;;;;;;;7.60;3.73;;;4.90;99.90;;;;;;5092779;28;20198;-56
2021/04/23 01:30:07;;;;;;;6.60;3.47;;;4.90;99.90;;;;;;5092780;28;20210;-57
2021/04/23 01:32:34;;;;;;;8.97;3.80;;;4.90;99.90;;;;;;5092432;28;20208;-55
2021/04/23 01:35:02;;;;;;;7.17;3.83;;;4.90;99.90;;;;;;5092603;28;20245;-54
2021/04/23 01:37:29;;;;;;;9.70;3.90;;;4.90;99.90;;;;;;5092826;28;20313;-57
2021/04/23 01:39:57;;;;;;;14.30;4.07;;;4.80;99.90;;;;;;5093205;28;20225;-56
2021/04/23 01:42:24;;;;;;;7.43;4.00;;;4.80;99.90;;;;;;5092755;28;20201;-55
2021/04/23 01:44:57;;;;;;;10.53;4.43;;;4.70;99.90;;;;;;5092849;28;20213;-55
2021/04/23 01:47:24;;;;;;;6.73;4.03;;;4.80;99.90;;;;;;5092863;28;20207;-56
2021/04/23 01:49:51;;;;;;;5.67;3.77;;;4.80;99.90;;;;;;5092660;28;20534;-57
2021/04/23 01:52:18;;;;;;;6.80;4.17;;;4.70;99.90;;;;;;5092494;28;20633;-57
2021/04/23 01:54:46;;;;;;;8.93;4.20;;;4.70;99.90;;;;;;5092685;28;20208;-54
2021/04/23 01:57:15;;;;;;;8.27;4.10;;;4.70;99.90;;;;;;5092193;28;20297;-56
2021/04/23 01:59:43;;;;;;;8.33;4.27;;;4.70;99.90;;;;;;5092694;28;20342;-55
2021/04/23 02:02:11;;;;;;;6.90;4.20;;;4.70;99.90;;;;;;5092534;28;20199;-57
2021/04/23 02:04:38;;;;;;;8.00;3.97;;;4.80;99.90;;;;;;5092556;28;20201;-57
2021/04/23 02:07:07;;;;;;;8.30;4.60;;;4.70;99.90;;;;;;5092448;28;20207;-58
2021/04/23 02:09:34;;;;;;;7.90;4.60;;;4.60;99.90;;;;;;5092778;28;20207;-57
2021/04/23 02:12:01;;;;;;;9.23;4.33;;;4.60;99.90;;;;;;5092082;28;20253;-56
2021/04/23 02:14:29;;;;;;;9.17;4.97;;;4.60;99.90;;;;;;5092174;28;20318;-58
2021/04/23 02:16:56;;;;;;;12.50;4.43;;;4.60;99.90;;;;;;5092625;28;20207;-55
2021/04/23 02:19:23;;;;;;;8.67;4.43;;;4.50;99.90;;;;;;5092767;28;20234;-57
2021/04/23 02:21:51;;;;;;;7.17;4.50;;;4.50;99.90;;;;;;5092179;28;20201;-57
2021/04/23 02:24:19;;;;;;;8.10;4.43;;;4.60;99.90;;;;;;5092687;28;20574;-58
2021/04/23 02:26:47;;;;;;;8.83;4.70;;;4.70;99.90;;;;;;5092299;28;20287;-56
2021/04/23 02:29:16;;;;;;;10.20;4.87;;;4.70;99.90;;;;;;5092535;28;20311;-57
2021/04/23 02:31:46;;;;;;;8.73;4.77;;;4.60;99.90;;;;;;5092362;28;20251;-57
2021/04/23 02:34:15;;;;;;;8.03;4.50;;;4.50;99.90;;;;;;5094033;28;20624;-54
2021/04/23 02:36:42;;;;;;;9.23;5.43;;;4.60;99.90;;;;;;5096384;28;20295;-56
2021/04/23 02:39:11;;;;;;;10.63;4.93;;;4.50;99.90;;;;;;5096207;28;20200;-55
2021/04/23 02:41:39;;;;;;;12.20;5.50;;;4.40;99.90;;;;;;5095687;28;20609;-57
2021/04/23 02:44:06;;;;;;;9.80;5.20;;;4.40;99.90;;;;;;5096384;28;20278;-55
2021/04/23 02:46:34;;;;;;;11.73;5.97;;;4.60;99.90;;;;;;5096235;28;20203;-55
2021/04/23 02:49:03;;;;;;;12.67;5.57;;;4.50;99.90;;;;;;5096032;28;20235;-57
2021/04/23 02:51:33;;;;;;;9.63;5.73;;;4.50;99.90;;;;;;5095914;28;20200;-56
2021/04/23 02:54:01;;;;;;;8.20;6.00;;;4.50;99.90;;;;;;5095920;28;20209;-57
2021/04/23 02:56:29;;;;;;;8.30;5.30;;;4.60;99.90;;;;;;5095738;28;20293;-55
2021/04/23 02:58:56;;;;;;;11.87;5.87;;;4.80;99.90;;;;;;5095760;28;20201;-55
2021/04/23 03:01:26;;;;;;;12.27;6.17;;;4.80;99.90;;;;;;5095642;28;20200;-55
2021/04/23 03:03:54;;;;;;;10.77;5.87;;;4.90;99.90;;;;;;5095472;28;20194;-56
2021/04/23 03:06:22;;;;;;;9.00;4.90;;;5.10;99.90;;;;;;5095684;28;20201;-56
2021/04/23 03:08:49;;;;;;;13.20;5.90;;;5.10;99.90;;;;;;5096138;28;20208;-51
2021/04/23 03:11:19;;;;;;;12.30;6.20;;;5.10;99.90;;;;;;5097346;28;20266;-53
2021/04/23 03:13:49;;;;;;;9.93;5.80;;;5.10;99.90;;;;;;5097705;28;20320;-54
2021/04/23 03:16:17;;;;;;;11.03;5.37;;;5.00;99.90;;;;;;5095941;28;20298;-57
2021/04/23 03:18:45;;;;;;;15.47;6.73;;;5.00;99.90;;;;;;5095662;28;20209;-54
2021/04/23 03:21:16;;;;;;;13.13;5.97;;;5.00;99.90;;;;;;5095211;28;20197;-56
2021/04/23 03:23:44;;;;;;;12.80;5.77;;;5.10;99.90;;;;;;5095289;28;20766;-56
2021/04/23 03:26:12;;;;;;;12.30;6.17;;;5.20;99.90;;;;;;5095357;28;20197;-56
2021/04/23 03:28:41;;;;;;;14.87;6.33;;;5.20;99.90;;;;;;5095542;28;20208;-57
2021/04/23 03:31:11;;;;;;;14.27;6.60;;;5.30;99.90;;;;;;5095131;28;20185;-56
2021/04/23 03:33:38;;;;;;;12.70;6.80;;;5.30;99.90;;;;;;5094816;28;20224;-57
2021/04/23 03:36:09;;;;;;;14.10;6.23;;;5.40;99.90;;;;;;5095250;28;20225;-55
2021/04/23 03:38:37;;;;;;;10.13;5.33;;;5.50;99.90;;;;;;5095416;28;20292;-55
2021/04/23 03:41:08;;;;;;;13.90;6.20;;;5.40;99.90;;;;;;5094900;28;20306;-58
2021/04/23 03:43:35;;;;;;;13.47;6.40;;;5.50;99.90;;;;;;5095061;28;20196;-57
2021/04/23 03:46:01;;;;;;;13.20;6.30;;;5.50;99.90;;;;;;5094789;28;20202;-57
2021/04/23 03:48:28;;;;;;;11.27;6.27;;;5.50;99.90;;;;;;5095013;28;20213;-58
2021/04/23 03:50:55;;;;;;;12.27;6.70;;;5.60;99.90;;;;;;5094967;28;20298;-56
2021/04/23 03:53:23;;;;;;;11.80;5.67;;;5.50;99.90;;;;;;5095112;28;20321;-54
2021/04/23 03:55:52;;;;;;;11.93;5.50;;;5.50;99.90;;;;;;5094621;28;20240;-55
2021/04/23 03:58:22;;;;;;;10.67;6.03;;;5.60;99.90;;;;;;5094694;28;20652;-56
2021/04/23 04:00:54;;;;;;;12.27;6.33;;;5.60;99.90;;;;;;5094902;28;20631;-56
2021/04/23 04:03:22;;;;;;;11.47;6.00;;;5.70;99.90;;;;;;5094583;28;20182;-57
2021/04/23 04:05:49;;;;;;;14.43;6.27;;;5.70;99.90;;;;;;5094927;28;20225;-58
2021/04/23 04:08:16;;;;;;;11.33;6.23;;;5.70;99.90;;;;;;5094587;28;20292;-57
2021/04/23 04:10:44;;;;;;;13.37;6.47;;;5.60;99.90;;;;;;5094358;28;20304;-57
2021/04/23 04:13:11;;;;;;;14.40;6.10;;;5.60;99.90;;;;;;5094069;28;20725;-56
2021/04/23 04:15:39;;;;;;;11.83;6.07;;;5.60;99.90;;;;;;5094354;28;20291;-56
2021/04/23 04:18:08;;;;;;;10.93;5.87;;;5.60;99.90;;;;;;5094404;28;20302;-56
2021/04/23 04:20:38;;;;;;;13.47;6.43;;;5.60;99.90;;;;;;5094280;28;20256;-55
2021/04/23 04:23:07;;;;;;;12.67;6.10;;;5.60;99.90;;;;;;5094703;28;20301;-54
2021/04/23 04:25:35;;;;;;;14.23;6.50;;;5.60;99.90;;;;;;5094237;28;20216;-56
2021/04/23 04:28:03;;;;;;;8.83;6.27;;;5.60;99.90;;;;;;5094098;28;20198;-57
2021/04/23 04:30:30;;;;;;;13.37;5.90;;;5.60;99.90;;;;;;5094350;28;20202;-53
2021/04/23 04:32:59;;;;;;;11.97;5.90;;;5.70;99.90;;;;;;5093709;28;20689;-54
2021/04/23 04:35:27;;;;;;;13.30;5.63;;;5.70;99.90;;;;;;5093260;28;20210;-54
2021/04/23 04:37:55;;;;;;;12.80;6.40;;;5.80;99.90;;;;;;5093105;28;20288;-55
2021/04/23 04:40:23;;;;;;;11.83;5.70;;;5.80;99.90;;;;;;5093387;28;20202;-57
2021/04/23 04:42:51;;;;;;;9.07;5.23;;;5.70;99.90;;;;;;5094093;28;20297;-55
2021/04/23 04:45:21;;;;;;;9.93;5.27;;;5.70;99.90;;;;;;5094049;28;20292;-53
2021/04/23 04:47:49;;;;;;;8.80;5.20;;;5.80;99.90;;;;;;5093654;28;20245;-54
2021/04/23 04:50:19;;;;;;;8.83;5.63;;;5.80;99.90;;;;;;5093656;28;20209;-54
2021/04/23 04:52:46;;;;;;;9.80;5.43;;;5.70;99.90;;;;;;5093419;28;20647;-57
2021/04/23 04:55:14;;;;;;;8.03;5.43;;;5.70;99.90;;;;;;5093342;28;20289;-54
2021/04/23 04:57:41;;;;;;;12.33;6.30;;;5.70;99.90;;;;;;5092964;28;20530;-56
2021/04/23 05:00:13;;;;;;;11.90;6.47;;;5.80;99.90;;;;;;5093774;28;20186;-55
2021/04/23 05:02:40;;;;;;;12.57;5.50;;;5.90;99.90;;;;;;5093423;28;20240;-56
2021/04/23 05:05:09;;;;;;;15.63;6.53;;;6.00;99.90;;;;;;5093573;28;20201;-58
2021/04/23 05:07:37;;;;;;;14.23;7.10;;;6.10;99.90;;;;;;5093309;28;20240;-55
2021/04/23 05:10:05;;;;;;;18.67;9.20;;;6.00;99.90;;;;;;5093112;28;20297;-54
2021/04/23 05:12:32;;;;;;;10.37;6.60;;;6.10;99.90;;;;;;5093240;28;20726;-56
2021/04/23 05:14:59;;;;;;;13.07;5.77;;;6.10;99.90;;;;;;5093168;28;20329;-56
2021/04/23 05:17:26;;;;;;;11.43;5.93;;;6.20;99.90;;;;;;5093110;28;20300;-57
2021/04/23 05:19:53;;;;;;;13.50;5.80;;;6.20;99.90;;;;;;5093167;28;20819;-55
2021/04/23 05:22:20;;;;;;;12.60;6.97;;;6.30;99.90;;;;;;5093244;28;20288;-56
2021/04/23 05:24:48;;;;;;;12.13;5.93;;;6.30;99.90;;;;;;5092884;28;20203;-56
2021/04/23 05:27:14;;;;;;;11.00;5.60;;;6.30;99.90;;;;;;5093163;28;20299;-53
2021/04/23 05:29:41;;;;;;;9.03;5.63;;;6.30;99.90;;;;;;5093281;28;20202;-57
2021/04/23 05:32:08;;;;;;;9.40;5.60;;;6.50;99.90;;;;;;5092954;28;20318;-59
2021/04/23 05:34:36;;;;;;;12.43;5.50;;;6.60;99.90;;;;;;5092935;28;20209;-55
2021/04/23 05:37:03;;;;;;;10.53;4.90;;;6.70;99.90;;;;;;5092603;28;20755;-56
2021/04/23 05:39:30;;;;;;;10.03;5.30;;;6.80;99.90;;;;;;5092556;28;20234;-58
2021/04/23 05:41:57;;;;;;;8.53;4.97;;;7.00;99.90;;;;;;5092738;28;20713;-58
2021/04/23 05:44:24;;;;;;;8.77;4.97;;;7.00;99.90;;;;;;5091821;28;20207;-58
2021/04/23 05:46:51;;;;;;;8.70;4.97;;;7.00;99.90;;;;;;5092752;28;20221;-59
2021/04/23 05:49:18;;;;;;;8.20;5.20;;;7.20;99.90;;;;;;5092617;28;20201;-59
2021/04/23 05:51:45;;;;;;;9.63;5.23;;;7.30;99.90;;;;;;5092517;28;20206;-59
2021/04/23 05:54:12;;;;;;;10.80;5.37;;;7.40;99.90;;;;;;5092049;28;20226;-58
2021/04/23 05:56:39;;;;;;;8.97;5.00;;;7.30;99.90;;;;;;5092540;28;20209;-59
2021/04/23 05:59:07;;;;;;;8.17;4.63;;;7.30;99.90;;;;;;5092435;28;20203;-59
2021/04/23 06:01:33;;;;;;;7.17;4.77;;;7.10;99.90;;;;;;5092299;28;20199;-58
2021/04/23 06:04:00;;;;;;;8.23;5.00;;;7.20;99.90;;;;;;5092389;28;20204;-56
2021/04/23 06:06:27;;;;;;;8.30;4.63;;;7.40;99.90;;;;;;5082365;28;20194;-55
2021/04/23 06:08:54;;;;;;;8.60;5.23;;;7.50;99.90;;;;;;5083831;28;20199;-58
2021/04/23 06:11:23;;;;;;;10.20;5.13;;;7.60;99.90;;;;;;5084396;28;20327;-58
2021/04/23 06:13:50;;;;;;;9.47;4.90;;;7.70;99.90;;;;;;5084256;28;20350;-58
2021/04/23 06:16:17;;;;;;;8.17;4.80;;;7.70;99.90;;;;;;5085354;28;20279;-57
2021/04/23 06:18:44;;;;;;;9.23;5.63;;;7.80;99.90;;;;;;5089779;28;20284;-56
2021/04/23 06:21:12;;;;;;;12.93;5.10;;;7.80;99.90;;;;;;5096536;28;20199;-58
2021/04/23 06:23:39;;;;;;;8.13;4.70;;;7.90;99.90;;;;;;5095946;28;20199;-58
2021/04/23 06:26:06;;;;;;;10.03;4.80;;;7.90;99.90;;;;;;5095725;28;20213;-56
2021/04/23 06:28:33;;;;;;;11.40;4.43;;;7.70;99.90;;;;;;5095333;28;20571;-57
2021/04/23 06:31:00;;;;;;;6.83;4.57;;;7.60;99.90;;;;;;5106731;28;20225;-57
2021/04/23 06:33:33;;;;;;;8.47;4.53;;;7.70;99.90;;;;;;5116650;28;20315;-57
2021/04/23 06:36:02;;;;;;;7.07;4.47;;;7.80;99.90;;;;;;5116784;28;20255;-57
2021/04/23 06:38:29;;;;;;;8.93;5.03;;;7.90;99.90;;;;;;5116630;28;20230;-56
2021/04/23 06:40:56;;;;;;;6.20;4.00;;;8.10;99.90;;;;;;5116406;28;20286;-55
2021/04/23 06:43:24;;;;;;;9.17;4.30;;;8.20;99.90;;;;;;5116235;28;20219;-58
2021/04/23 06:45:51;;;;;;;8.63;4.50;;;8.30;99.90;;;;;;5116321;28;20199;-57
2021/04/23 06:48:18;;;;;;;9.73;5.00;;;8.40;99.90;;;;;;5116084;28;20300;-57
2021/04/23 06:50:47;;;;;;;6.47;4.17;;;8.50;99.90;;;;;;5116547;28;20213;-57
2021/04/23 06:53:14;;;;;;;6.53;4.00;;;8.50;99.90;;;;;;5116150;28;20257;-57
2021/04/23 06:55:43;;;;;;;6.77;4.27;;;8.50;99.90;;;;;;5115858;28;20674;-57
2021/04/23 06:58:10;;;;;;;6.30;3.43;;;8.50;99.90;;;;;;5115951;28;20723;-59
2021/04/23 07:00:38;;;;;;;6.93;4.00;;;8.50;99.90;;;;;;5108166;28;20290;-57
2021/04/23 07:03:09;;;;;;;10.17;4.10;;;8.60;99.90;;;;;;5095547;28;20256;-56
2021/04/23 07:05:36;;;;;;;7.50;3.90;;;8.80;99.90;;;;;;5095884;28;20283;-56
2021/04/23 07:08:04;;;;;;;5.67;3.80;;;8.90;99.90;;;;;;5095186;28;20204;-58
2021/04/23 07:10:32;;;;;;;7.57;3.20;;;9.10;99.90;;;;;;5094934;28;20235;-57
2021/04/23 07:12:59;;;;;;;7.93;3.40;;;9.10;99.90;;;;;;5094627;28;20231;-55
2021/04/23 07:15:28;;;;;;;6.30;3.33;;;9.10;99.90;;;;;;5093293;28;20238;-59
2021/04/23 07:17:56;;;;;;;7.77;3.30;;;9.10;99.90;;;;;;5092155;28;20200;-59
2021/04/23 07:20:37;;;;;;;8.47;3.30;;;9.00;99.90;;;;;;5097368;28;20241;-60
2021/04/23 07:23:05;;;;;;;5.57;2.97;;;9.00;99.90;;;;;;5097704;28;20204;-58
2021/04/23 07:25:33;;;;;;;5.60;3.10;;;9.10;99.90;;;;;;5095023;28;20208;-57
2021/04/23 07:28:00;;;;;;;4.13;2.90;;;9.20;99.90;;;;;;5092440;28;20208;-57
2021/04/23 07:30:29;;;;;;;6.17;3.10;;;9.30;99.90;;;;;;5088458;28;20312;-55
2021/04/23 07:32:57;;;;;;;5.57;3.17;;;9.40;99.90;;;;;;5080879;28;20216;-55
2021/04/23 07:35:25;;;;;;;4.70;2.77;;;9.50;99.90;;;;;;5081452;28;20624;-55
2021/04/23 07:37:52;;;;;;;4.97;3.00;;;9.60;99.90;;;;;;5088752;28;20224;-59
2021/04/23 07:40:21;;;;;;;6.27;3.37;;;9.90;99.90;;;;;;5091845;28;20204;-57
2021/04/23 07:42:48;;;;;;;4.80;3.33;;;10.20;99.90;;;;;;5091757;28;20648;-58
2021/04/23 07:45:17;;;;;;;7.30;3.23;;;10.40;99.90;;;;;;5092079;28;20291;-56
2021/04/23 07:47:45;;;;;;;6.00;3.07;;;10.30;99.90;;;;;;5091716;28;20202;-58
2021/04/23 07:50:15;;;;;;;6.37;3.80;;;10.30;99.90;;;;;;5091648;28;20745;-56
2021/04/23 07:52:43;;;;;;;8.33;3.50;;;10.10;99.90;;;;;;5091352;28;20236;-57
2021/04/23 07:55:11;;;;;;;6.20;3.43;;;10.00;99.90;;;;;;5091609;28;20712;-57
2021/04/23 07:57:39;;;;;;;4.77;3.20;;;10.10;99.90;;;;;;5091803;28;20299;-58
2021/04/23 08:00:08;;;;;;;6.37;3.30;;;10.20;99.90;;;;;;5091213;28;20218;-57
2021/04/23 08:02:36;;;;;;;6.80;3.53;;;10.10;99.90;;;;;;5090965;28;20741;-56
2021/04/23 08:05:05;;;;;;;5.07;3.43;;;10.00;99.90;;;;;;5091578;28;20200;-57
2021/04/23 08:07:52;;;;;;;6.17;3.50;;;9.80;99.90;;;;;;5090802;28;20207;-58
2021/04/23 08:10:20;;;;;;;5.13;3.40;;;9.80;99.90;;;;;;5084024;28;20207;-58
2021/04/23 08:12:51;;;;;;;6.73;3.37;;;9.70;99.90;;;;;;5071098;28;20248;-56
2021/04/23 08:15:18;;;;;;;8.10;3.30;;;9.70;99.90;;;;;;5070785;28;20652;-56
2021/04/23 08:17:45;;;;;;;8.13;3.57;;;9.40;99.90;;;;;;5070863;28;20287;-57
2021/04/23 08:20:14;;;;;;;7.17;3.57;;;9.50;99.90;;;;;;5070834;28;20645;-58
2021/04/23 08:22:41;;;;;;;5.23;3.40;;;9.40;99.90;;;;;;5070235;28;20566;-60
2021/04/23 08:25:09;;;;;;;7.67;3.43;;;9.40;99.90;;;;;;5070907;28;20227;-60
2021/04/23 08:27:37;;;;;;;6.20;3.43;;;9.20;99.90;;;;;;5079030;28;20342;-57
2021/04/23 08:30:07;;;;;;;6.03;3.33;;;9.10;99.90;;;;;;5090685;28;20936;-57
2021/04/23 08:32:35;;;;;;;9.90;3.83;;;9.10;99.90;;;;;;5089529;28;20394;-54
2021/04/23 08:35:03;;;;;;;6.10;3.10;;;9.00;99.90;;;;;;5090749;28;20211;-55
2021/04/23 08:37:29;;;;;;;5.50;3.60;;;9.30;99.90;;;;;;5090397;28;20506;-55
2021/04/23 08:39:57;;;;;;;5.40;3.07;;;9.60;99.90;;;;;;5090459;28;20299;-56
2021/04/23 08:42:24;;;;;;;3.83;2.87;;;9.70;99.90;;;;;;5090776;28;20636;-54
2021/04/23 08:44:51;;;;;;;7.40;3.27;;;9.80;99.90;;;;;;5090809;28;20227;-53
2021/04/23 08:47:19;;;;;;;5.90;3.30;;;9.90;99.90;;;;;;5090509;28;20364;-55
2021/04/23 08:49:46;;;;;;;7.10;3.33;;;10.10;99.90;;;;;;5090637;28;20208;-58
2021/04/23 08:52:14;;;;;;;4.97;2.87;;;10.30;99.90;;;;;;5090272;28;20206;-56
2021/04/23 08:54:40;;;;;;;6.87;3.27;;;10.50;99.90;;;;;;5090223;28;20222;-56
2021/04/23 08:57:08;;;;;;;7.00;3.17;;;10.70;99.90;;;;;;5090300;28;20290;-56
2021/04/23 08:59:35;;;;;;;4.97;3.07;;;10.80;99.90;;;;;;5090010;28;20204;-56
2021/04/23 09:02:02;;;;;;;5.07;3.40;;;11.10;99.90;;;;;;5089787;28;20223;-57
2021/04/23 09:04:30;;;;;;;8.70;3.50;;;11.20;99.90;;;;;;5090269;28;20223;-54
2021/04/23 09:07:01;;;;;;;5.73;3.40;;;11.40;99.90;;;;;;5090089;28;20256;-55
2021/04/23 09:09:34;;;;;;;5.43;3.50;;;11.60;99.90;;;;;;5092083;28;20569;-54
2021/04/23 09:12:17;;;;;;;6.03;3.77;;;11.60;99.90;;;;;;5090187;28;20235;-56
2021/04/23 09:14:44;;;;;;;12.23;4.03;;;11.50;99.90;;;;;;5089536;28;20270;-55
2021/04/23 09:17:11;;;;;;;5.83;3.40;;;11.50;99.90;;;;;;5089761;28;20790;-57
2021/04/23 09:19:40;;;;;;;5.30;3.40;;;11.40;99.90;;;;;;5089797;28;20545;-56
2021/04/23 09:22:09;;;;;;;5.93;3.70;;;11.30;99.90;;;;;;5089635;28;20303;-55
2021/04/23 09:24:38;;;;;;;6.00;3.23;;;11.20;99.90;;;;;;5089378;28;20556;-55
2021/04/23 09:27:11;;;;;;;6.17;3.60;;;10.80;99.90;;;;;;5089814;28;20208;-56
2021/04/23 09:29:41;;;;;;;6.37;3.27;;;10.60;99.90;;;;;;5089739;28;20675;-57
2021/04/23 09:32:11;;;;;;;8.50;3.80;;;10.60;99.90;;;;;;5089480;28;20330;-58
2021/04/23 09:34:53;;;;;;;4.50;3.77;;;10.60;99.90;;;;;;5089714;28;20210;-57
2021/04/23 09:37:23;;;;;;;5.93;3.47;;;10.40;99.90;;;;;;5089447;28;20192;-57
2021/04/23 09:39:51;;;;;;;8.40;3.83;;;10.30;99.90;;;;;;5089320;28;20214;-58
2021/04/23 09:42:20;;;;;;;5.80;3.70;;;10.40;99.90;;;;;;5089343;28;20667;-57
2021/04/23 09:44:48;;;;;;;6.13;3.90;;;10.40;99.90;;;;;;5089216;28;20282;-56
2021/04/23 09:47:18;;;;;;;6.43;3.87;;;10.50;99.90;;;;;;5089792;28;20232;-58
2021/04/23 09:49:46;;;;;;;5.23;3.20;;;10.70;99.90;;;;;;5089151;28;20584;-56
2021/04/23 09:52:15;;;;;;;6.00;3.77;;;10.90;99.90;;;;;;5081306;28;20235;-57
2021/04/23 09:54:47;;;;;;;6.60;3.23;;;11.20;99.90;;;;;;5069149;28;20622;-54
2021/04/23 09:57:17;;;;;;;5.67;3.60;;;11.40;99.90;;;;;;5069539;28;20254;-57
2021/04/23 09:59:52;;;;;;;7.63;3.53;;;11.30;99.90;;;;;;5069388;28;20244;-55
2021/04/23 10:02:21;;;;;;;5.97;3.23;;;11.20;99.90;;;;;;5069140;28;20276;-56
2021/04/23 10:04:48;;;;;;;7.97;3.97;;;11.10;99.90;;;;;;5068925;28;20243;-58
2021/04/23 10:07:22;;;;;;;10.50;3.63;;;11.10;99.90;;;;;;5068548;28;20273;-58
2021/04/23 10:09:55;;;;;;;7.60;3.63;;;10.90;99.90;;;;;;5079463;28;20199;-54
2021/04/23 10:12:37;;;;;;;8.47;3.60;;;10.90;99.90;;;;;;5089557;28;20276;-57
2021/04/23 10:15:15;;;;;;;8.03;4.10;;;10.80;99.90;;;;;;5089329;28;20237;-55
2021/04/23 10:17:43;;;;;;;7.17;3.93;;;10.80;99.90;;;;;;5089116;28;20279;-56
2021/04/23 10:20:13;;;;;;;10.83;4.90;;;10.80;99.90;;;;;;5089033;28;20204;-56
2021/04/23 10:22:41;;;;;;;8.90;4.90;;;10.70;99.90;;;;;;5088848;28;20207;-56
2021/04/23 10:25:09;;;;;;;9.43;5.77;;;10.80;99.90;;;;;;5089150;28;20652;-59
2021/04/23 10:27:37;;;;;;;6.40;4.83;;;10.80;99.90;;;;;;5089217;28;20212;-58
2021/04/23 10:30:08;;;;;;;8.30;5.40;;;10.80;99.90;;;;;;5088829;28;20231;-59
2021/04/23 10:32:57;;;;;;;9.23;4.47;;;10.70;99.90;;;;;;5087449;28;20216;-59
2021/04/23 10:35:25;;;;;;;8.67;4.40;;;10.70;99.90;;;;;;5088484;28;20648;-57
2021/04/23 10:37:53;;;;;;;6.40;4.60;;;10.80;99.90;;;;;;5088978;28;20769;-58
2021/04/23 10:40:23;;;;;;;5.57;4.80;;;10.90;99.90;;;;;;5088724;28;20640;-57
2021/04/23 10:42:53;;;;;;;9.77;5.10;;;11.00;99.90;;;;;;5089047;28;20292;-56
2021/04/23 10:45:34;;;;;;;7.40;5.07;;;11.20;99.90;;;;;;5089237;28;20248;-56
2021/04/23 10:48:22;;;;;;;9.27;4.80;;;11.20;99.90;;;;;;5089596;28;20180;-57
2021/04/23 10:50:51;;;;;;;7.20;5.30;;;11.40;99.90;;;;;;5089268;28;20275;-57
2021/04/23 10:53:21;;;;;;;8.00;5.17;;;11.40;99.90;;;;;;5088632;28;20763;-56
2021/04/23 10:55:50;;;;;;;7.23;5.37;;;11.70;99.90;;;;;;5091813;28;20287;-59
2021/04/23 10:58:34;;;;;;;7.73;5.60;;;12.00;99.90;;;;;;5092775;28;20265;-54
2021/04/23 11:01:19;;;;;;;7.00;5.53;;;12.00;99.90;;;;;;5081823;28;20606;-56
2021/04/23 11:03:58;;;;;;;8.70;5.80;;;12.00;99.90;;;;;;5072215;28;20189;-58
2021/04/23 11:06:31;;;;;;;6.80;5.50;;;11.90;99.90;;;;;;5072561;28;20181;-57
2021/04/23 11:09:17;;;;;;;7.10;5.60;;;11.90;99.90;;;;;;5072584;28;20258;-55
2021/04/23 11:12:16;;;;;;;6.40;4.70;;;12.20;99.90;;;;;;5072680;28;20221;-58
2021/04/23 11:14:45;;;;;;;8.00;5.67;;;12.60;99.90;;;;;;5072266;28;20228;-55
2021/04/23 11:17:33;;;;;;;8.10;5.17;;;12.60;99.90;;;;;;5076698;28;20217;-59
2021/04/23 11:20:01;;;;;;;8.00;5.60;;;12.30;99.90;;;;;;5070851;28;20204;-54
2021/04/23 11:22:30;;;;;;;7.87;5.10;;;12.30;99.90;;;;;;5072424;28;20301;-60
2021/04/23 11:25:20;;;;;;;5.93;4.80;;;12.40;99.90;;;;;;5071989;28;20291;-59
2021/04/23 11:28:11;;;;;;;9.17;5.60;;;12.40;99.90;;;;;;5071933;28;20185;-58
2021/04/23 11:30:57;;;;;;;8.13;5.53;;;12.20;99.90;;;;;;5056504;28;20287;-58
2021/04/23 11:33:48;;;;;;;10.63;5.90;;;12.10;99.90;;;;;;5071373;28;21041;-58
2021/04/23 11:36:21;;;;;;;7.57;5.53;;;11.80;99.90;;;;;;5071804;28;20228;-57
2021/04/23 11:38:58;;;;;;;10.27;5.70;;;11.90;99.90;;;;;;5071805;28;20200;-59
2021/04/23 11:41:25;;;;;;;7.53;5.83;;;12.10;99.90;;;;;;5071988;28;20201;-56
2021/04/23 11:43:52;;;;;;;7.67;6.07;;;12.10;99.90;;;;;;5071643;28;20207;-59
2021/04/23 11:46:19;;;;;;;6.63;5.93;;;12.00;99.90;;;;;;5071579;28;20215;-57
2021/04/23 11:48:50;;;;;;;12.47;6.43;;;12.00;99.90;;;;;;5071406;28;20307;-54
2021/04/23 11:51:18;;;;;;;8.90;6.07;;;12.30;99.90;;;;;;5071536;28;20201;-58
2021/04/23 11:53:49;;;;;;;8.27;6.00;;;12.40;99.90;;;;;;5071047;28;20267;-60
2021/04/23 11:56:17;;;;;;;9.23;6.07;;;12.20;99.90;;;;;;5071098;28;20243;-60
2021/04/23 11:58:45;;;;;;;9.63;6.20;;;12.30;99.90;;;;;;5082657;28;20210;-60
2021/04/23 12:01:12;;;;;;;7.97;5.97;;;12.30;99.90;;;;;;5111576;27;20199;-58
2021/04/23 12:03:46;;;;;;;9.43;5.53;;;12.40;99.90;;;;;;5111854;28;20326;-56
2021/04/23 12:06:25;;;;;;;8.50;5.53;;;12.40;99.90;;;;;;5110715;28;20211;-54
2021/04/23 12:08:53;;;;;;;7.90;5.73;;;12.20;99.90;;;;;;5109622;28;20215;-55
2021/04/23 12:11:20;;;;;;;7.70;5.63;;;11.90;99.90;;;;;;5091369;28;20196;-54
2021/04/23 12:13:49;;;;;;;9.57;5.67;;;11.90;99.90;;;;;;5090752;28;20337;-55
2021/04/23 12:16:17;;;;;;;8.37;6.43;;;11.90;99.90;;;;;;5090624;28;20250;-56
2021/04/23 12:18:45;;;;;;;7.77;5.67;;;12.20;99.90;;;;;;5090412;28;20206;-58
2021/04/23 12:21:14;;;;;;;8.57;5.80;;;12.40;99.90;;;;;;5090978;28;20210;-58
2021/04/23 12:23:41;;;;;;;9.03;6.00;;;12.80;99.90;;;;;;5090141;28;20551;-59
2021/04/23 12:26:11;;;;;;;7.67;6.10;;;12.90;99.90;;;;;;5089879;28;20245;-58
2021/04/23 12:28:39;;;;;;;8.10;5.73;;;12.70;99.90;;;;;;5082685;28;20195;-52
2021/04/23 12:31:11;;;;;;;7.73;6.10;;;12.50;99.90;;;;;;5110847;28;20584;-54
2021/04/23 12:33:46;;;;;;;7.90;6.40;;;12.30;99.90;;;;;;5111103;28;20200;-54
2021/04/23 12:36:17;;;;;;;10.83;6.80;;;12.10;99.90;;;;;;5111402;28;20236;-54
2021/04/23 12:38:46;;;;;;;9.33;6.33;;;12.00;99.90;;;;;;5088245;28;20196;-58
2021/04/23 12:41:22;;;;;;;9.40;5.80;;;12.00;99.90;;;;;;5078550;28;20192;-58
2021/04/23 12:43:50;;;;;;;8.63;5.67;;;11.90;99.90;;;;;;5081087;28;20184;-59
2021/04/23 12:46:27;;;;;;;9.60;5.83;;;11.70;99.90;;;;;;5079376;28;20192;-60
2021/04/23 12:49:10;;;;;;;12.60;6.27;;;11.80;99.90;;;;;;5079291;28;20180;-62
2021/04/23 12:51:42;;;;;;;8.37;5.33;;;12.20;99.90;;;;;;5087718;28;20313;-60
2021/04/23 12:54:10;;;;;;;9.47;6.00;;;12.40;99.90;;;;;;5090593;28;20235;-57
2021/04/23 12:56:38;;;;;;;8.43;5.77;;;12.40;99.90;;;;;;5090396;28;20281;-58
2021/04/23 12:59:05;;;;;;;9.60;5.73;;;12.50;99.90;;;;;;5098341;28;20719;-59
2021/04/23 13:01:33;;;;;;;8.47;5.73;;;12.50;99.90;;;;;;5110619;28;20195;-57